Řízení letového provozu České republiky  
Aktualizace dat:  13.06.2021 22:47:25 UTC English version
   METEO Zobrazení stránky:  13.06.2021 22:49:05 UTC  
vysvětlivky
METAR EDDB 132220Z 30005KT CAVOK 13/08 Q1024 NOSIG=
METAR EDDC 132220Z 27004KT CAVOK 12/08 Q1025=
METAR EDDE 132220Z VRB02KT CAVOK 15/08 Q1026=
METAR EDDF 132220Z 01006KT CAVOK 16/10 Q1025 NOSIG=
METAR EDDM 132220Z 18001KT CAVOK 10/07 Q1025 NOSIG=
METAR EDDN 132220Z 06005KT CAVOK 13/08 Q1026=
METAR EDDP 132220Z 26005KT CAVOK 12/09 Q1025 NOSIG=
METAR EDQM NIL
METAR EPBY 132230Z 26007KT CAVOK 08/06 Q1022=
METAR EPGD 132230Z 26007KT CAVOK 11/09 Q1021=
METAR EPKK 132230Z 28010KT 9999 BKN053 12/08 Q1022=
METAR EPKT 132230Z 29005KT CAVOK 08/07 Q1023=
METAR EPLL 132230Z 28006KT CAVOK 12/07 Q1022=
METAR EPPO 132230Z 29005KT CAVOK 11/08 Q1024=
METAR EPRZ 132230Z 29011KT CAVOK 11/10 Q1019=
METAR EPWA 132230Z 31007KT CAVOK 12/09 Q1020 NOSIG=
METAR EPWR 132230Z 29007KT CAVOK 08/07 Q1025=
METAR LHBP 132230Z 31005KT CAVOK 13/04 Q1021 NOSIG=
METAR LHSM 132215Z AUTO 36009KT 330V040 CAVOK 14/06 Q1023=
METAR LKBC 132230Z AUTO 00000KT CAVOK 09/05 Q1026=
METAR LKCV 132230Z 23005KT CAVOK 11/08 Q1025 NOSIG RMK BLU BLU=
METAR LKKB 132230Z 24005KT CAVOK 10/06 Q1026 RMK BLU=
METAR LKKU NIL
METAR LKKV 132200Z 11004KT CAVOK 06/04 Q1026 RMK REG QNH 1022=
METAR LKLN 132230Z AUTO 00000KT CAVOK 10/07 Q1027=
METAR LKMT 132230Z 19003KT 150V260 CAVOK 10/07 Q1024 NOSIG RMK REG QNH 1022=
METAR LKNA 132230Z 31008KT 9999 FEW045 09/06 Q1025 RMK BLU=
METAR LKPD 132230Z 26004KT CAVOK 12/08 Q1025 RMK BLU=
METAR LKPJ 132230Z AUTO 31005KT CAVOK 12/06 Q1024=
METAR LKPR 132230Z 26007KT CAVOK 07/06 Q1026 NOSIG RMK REG QNH 1022=
METAR LKTB 132230Z 31006KT CAVOK 12/06 Q1025 NOSIG RMK REG QNH 1022=
METAR LKVO NIL
METAR LOWI 132220Z AUTO VRB01KT 9999 NCD 15/09 Q1025=
METAR LOWL 132220Z 09007KT CAVOK 13/07 Q1026 NOSIG=
METAR LOWS 132220Z AUTO 21005KT 9999 NCD 13/08 Q1025=
METAR LOWW 132220Z 33012KT CAVOK 13/06 Q1025 NOSIG=
METAR LZIB 132230Z 32009KT CAVOK 14/06 Q1024=
METAR LZKZ 132230Z 34014KT 300V360 9999 FEW045 14/06 Q1019=
METAR LZMC 132200Z AUTO 33008KT 6000 R19/1500 ////// 14/06 Q1025=
METAR LZPP 132230Z AUTO 01007KT 9999 NCD 11/05 Q1023=
METAR LZSL 132200Z AUTO VRB01KT 8000 // OVC220/// 12/04 Q1022=
METAR LZTT 132230Z 25009KT 9999 FEW046 BKN073 10/03 Q1021=
METAR LZZI 132230Z 12004KT 080V160 9999 FEW034 SCT047 10/06 Q1023=